Time;durP1;ratioP1;P1;durP2;ratioP2;P2;SDS_P1;SDS_P2;PMS_P1;PMS_P2;Temp;Humidity;BMP_temperature;BMP_pressure;BME280_temperature;BME280_humidity;BME280_pressure;Samples;Min_cycle;Max_cycle;Signal;HPM_P1;HPM_P2
2023/02/09 00:05:51;;;;;;;155.10;69.40;;;;;;;-6.56;80.90;100940.74;440512;1250;107661;-39
2023/02/09 00:26:11;;;;;;;154.30;66.00;;;;;;;-6.69;80.98;100930.46;439354;1250;107622;-40
2023/02/09 00:36:18;;;;;;;136.50;61.40;;;;;;;-6.69;81.01;100928.09;439202;1245;99356;-40
2023/02/09 00:46:25;;;;;;;114.50;54.10;;;;;;;-6.73;81.13;100926.21;438747;1250;111255;-39
2023/02/09 00:56:33;;;;;;;109.20;51.90;;;;;;;-6.77;81.26;100914.54;438189;1249;106745;-39
2023/02/09 01:06:40;;;;;;;117.70;50.90;;;;;;;-6.77;81.26;100903.20;438252;1250;99234;-39
2023/02/09 01:16:47;;;;;;;116.40;51.00;;;;;;;-6.75;81.39;100894.39;438104;1249;108016;-39
2023/02/09 01:26:55;;;;;;;117.90;54.90;;;;;;;-6.81;81.35;100891.55;438224;1245;98795;-39
2023/02/09 01:37:02;;;;;;;124.50;55.00;;;;;;;-6.88;81.38;100886.34;438335;1245;111562;-40
2023/02/09 01:47:13;;;;;;;127.00;58.70;;;;;;;-6.97;81.33;100879.17;438093;1251;108257;-40
2023/02/09 01:57:25;;;;;;;130.90;59.70;;;;;;;-7.05;81.55;100868.04;438197;1251;98014;-39
2023/02/09 02:07:38;;;;;;;130.40;58.60;;;;;;;-7.09;81.63;100851.04;438143;1249;107221;-39
2023/02/09 02:17:49;;;;;;;122.50;54.00;;;;;;;-7.15;81.68;100842.38;438896;1248;99437;-39
2023/02/09 02:27:58;;;;;;;132.90;61.20;;;;;;;-7.24;81.50;100830.79;437962;1260;111466;-40
2023/02/09 02:38:04;;;;;;;127.40;58.80;;;;;;;-7.35;81.51;100818.54;438875;1251;107172;-40
2023/02/09 02:48:16;;;;;;;138.80;64.50;;;;;;;-7.47;81.67;100798.44;437963;1259;99247;-40
2023/02/09 02:58:25;;;;;;;123.40;59.00;;;;;;;-7.50;81.73;100793.10;437954;1250;109090;-39
2023/02/09 03:08:46;;;;;;;130.00;60.90;;;;;;;-7.57;81.76;100781.40;437956;1257;98816;-40
2023/02/09 03:19:04;;;;;;;107.10;52.80;;;;;;;-7.64;81.81;100773.80;438117;1251;111169;-40
2023/02/09 03:29:13;;;;;;;92.70;44.80;;;;;;;-7.70;81.90;100757.13;438941;1251;371156;-38
2023/02/09 03:49:24;;;;;;;134.50;61.50;;;;;;;-7.76;82.13;100752.73;438073;1250;106970;-40
2023/02/09 04:09:39;;;;;;;101.90;50.70;;;;;;;-7.86;82.07;100733.77;438046;1248;111451;-40
2023/02/09 04:19:46;;;;;;;135.00;56.70;;;;;;;-7.81;82.23;100722.44;439258;1249;107841;-39
2023/02/09 04:29:54;;;;;;;135.60;56.40;;;;;;;-7.72;82.53;100713.02;438036;1248;98006;-39
2023/02/09 04:40:01;;;;;;;123.40;57.30;;;;;;;-7.76;82.27;100710.94;438086;1250;108535;-39
2023/02/09 04:50:09;;;;;;;112.00;50.30;;;;;;;-7.85;82.36;100704.78;438007;1248;99073;-40
2023/02/09 05:00:17;;;;;;;121.10;57.10;;;;;;;-7.91;82.42;100701.63;437955;1250;111040;-39
2023/02/09 05:10:24;;;;;;;126.90;56.70;;;;;;;-7.97;82.22;100689.39;437977;1251;107501;-41
2023/02/09 05:20:31;;;;;;;165.00;72.70;;;;;;;-8.03;82.64;100678.52;439047;1251;98491;-39
2023/02/09 05:30:38;;;;;;;128.30;59.30;;;;;;;-7.94;82.98;100661.52;439457;1250;108033;-39
2023/02/09 05:40:45;;;;;;;120.90;54.70;;;;;;;-7.73;83.57;100655.85;437931;1247;98004;-39
2023/02/09 05:50:53;;;;;;;96.50;44.00;;;;;;;-7.61;83.57;100653.98;438024;1251;111841;-40
2023/02/09 06:01:01;;;;;;;126.70;56.00;;;;;;;-7.59;83.62;100658.70;437990;1251;107716;-39
2023/02/09 06:11:08;;;;;;;124.70;58.30;;;;;;;-7.61;83.52;100657.23;437966;1248;99211;-39
2023/02/09 06:21:17;;;;;;;110.80;54.80;;;;;;;-7.60;83.62;100651.35;439336;1248;108721;-38
2023/02/09 06:31:25;;;;;;;88.00;41.90;;;;;;;-7.49;83.66;100650.58;437986;1250;98031;-37
2023/02/09 06:41:32;;;;;;;102.00;47.20;;;;;;;-7.31;84.00;100652.54;438070;1248;112398;-40
2023/02/09 06:51:40;;;;;;;90.70;44.70;;;;;;;-6.96;84.18;100656.08;438057;1249;107532;-38
2023/02/09 07:01:49;;;;;;;90.10;47.20;;;;;;;-6.49;83.97;100660.77;438060;1251;99188;-38
2023/02/09 07:11:59;;;;;;;118.40;48.60;;;;;;;-5.90;84.17;100661.32;438193;1250;107405;-41
2023/02/09 07:22:06;;;;;;;98.90;44.40;;;;;;;-5.37;84.05;100646.42;438123;1246;98777;-40
2023/02/09 07:32:14;;;;;;;86.90;39.20;;;;;;;-5.02;83.66;100639.27;438130;1250;111976;-39
2023/02/09 07:42:21;;;;;;;91.50;36.00;;;;;;;-4.13;84.19;100640.14;438874;1246;106595;-40
2023/02/09 07:52:29;;;;;;;67.30;32.00;;;;;;;-2.63;83.98;100626.19;438209;1250;97989;-40
2023/02/09 08:02:38;;;;;;;79.70;36.30;;;;;;;-2.16;83.17;100613.96;438144;1247;109188;-40
2023/02/09 08:33:23;;;;;;;52.10;22.50;;;;;;;1.29;80.20;100596.20;438028;1250;108669;-40
2023/02/09 08:43:32;;;;;;;46.00;21.80;;;;;;;1.15;78.34;100587.74;438214;1250;99223;-38
2023/02/09 08:53:40;;;;;;;51.30;23.00;;;;;;;0.37;77.08;100596.44;438136;1250;111304;-41
2023/02/09 09:03:48;;;;;;;46.70;21.70;;;;;;;-0.04;76.14;100605.58;438079;1247;107672;-40
2023/02/09 09:13:55;;;;;;;51.50;22.10;;;;;;;-0.30;76.07;100601.77;438231;1250;99230;-42
2023/02/09 09:24:03;;;;;;;41.60;19.50;;;;;;;-0.09;75.90;100589.64;438167;1250;112909;-40
2023/02/09 09:34:11;;;;;;;38.90;18.50;;;;;;;-0.04;75.25;100576.47;438334;1250;108937;-40
2023/02/09 09:44:22;;;;;;;39.50;19.60;;;;;;;0.44;75.12;100581.00;438219;1247;99237;-40
2023/02/09 10:04:40;;;;;;;34.50;16.40;;;;;;;1.07;73.20;100570.85;438212;1250;107701;-38
2023/02/09 10:14:47;;;;;;;31.50;15.90;;;;;;;1.34;72.84;100574.08;438161;1250;98823;-39
2023/02/09 10:24:56;;;;;;;34.90;17.60;;;;;;;1.58;72.85;100570.06;438243;1248;112249;-40
2023/02/09 10:35:06;;;;;;;37.00;19.20;;;;;;;1.81;71.91;100557.08;438207;1250;107093;-39
2023/02/09 10:45:20;;;;;;;40.10;18.30;;;;;;;1.99;71.15;100546.38;438135;1250;97982;-40
2023/02/09 10:55:26;;;;;;;39.70;19.40;;;;;;;2.00;69.26;100531.14;439935;1250;111936;-39
2023/02/09 11:05:32;;;;;;;40.20;18.00;;;;;;;1.98;68.44;100516.52;440418;1250;107929;-40
2023/02/09 11:15:46;;;;;;;36.20;16.60;;;;;;;2.09;68.17;100501.09;439360;1246;98822;-39
2023/02/09 11:25:53;;;;;;;41.20;18.40;;;;;;;2.17;67.50;100497.13;438470;1248;111330;-39
2023/02/09 11:36:00;;;;;;;41.00;17.40;;;;;;;2.25;67.11;100490.42;438105;1250;108131;-40
2023/02/09 11:46:12;;;;;;;36.30;16.20;;;;;;;2.25;65.94;100479.92;438180;1250;99186;-40
2023/02/09 11:56:23;;;;;;;35.20;16.10;;;;;;;2.24;65.88;100466.64;438048;1250;111972;-39
2023/02/09 12:16:42;;;;;;;35.30;15.20;;;;;;;2.22;63.30;100450.41;438229;1248;99299;-39
2023/02/09 12:26:56;;;;;;;32.10;15.10;;;;;;;2.29;64.07;100435.54;438180;1246;111687;-39
2023/02/09 12:37:23;;;;;;;27.70;13.90;;;;;;;2.28;63.09;100416.49;438220;1250;108658;-40
2023/02/09 12:47:46;;;;;;;28.40;12.80;;;;;;;2.20;62.36;100407.82;438200;1250;97972;-40
2023/02/09 12:57:53;;;;;;;24.70;12.20;;;;;;;2.21;62.30;100403.23;438150;1250;110207;-39
2023/02/09 13:08:03;;;;;;;28.10;13.20;;;;;;;2.33;61.71;100394.89;438174;1248;107367;-38
2023/02/09 13:18:09;;;;;;;;;;;;;;;2.33;62.44;100385.98;438245;1251;99134;-40
2023/02/09 13:38:33;;;;;;;28.50;14.00;;;;;;;2.26;60.87;100379.48;438312;1248;107238;-40
2023/02/09 13:48:40;;;;;;;23.40;11.00;;;;;;;2.22;60.56;100363.65;438212;1248;99217;-40
2023/02/09 13:58:49;;;;;;;29.70;13.20;;;;;;;2.17;61.10;100351.52;438359;1250;106786;-38
2023/02/09 14:08:57;;;;;;;22.80;11.60;;;;;;;2.08;60.75;100350.75;438177;1250;99109;-40
2023/02/09 14:19:24;;;;;;;33.10;14.50;;;;;;;1.98;61.13;100349.91;438236;1250;110729;-40
2023/02/09 14:29:32;;;;;;;27.10;13.00;;;;;;;1.88;61.52;100341.88;438238;1249;108871;-40
2023/02/09 14:39:51;;;;;;;;;;;;;;;1.78;61.14;100335.41;438317;1250;98804;-38
2023/02/09 15:20:29;;;;;;;26.30;13.20;;;;;;;1.08;61.57;100301.61;438185;1250;110657;-40
2023/02/09 15:30:36;;;;;;;31.50;13.90;;;;;;;0.84;61.53;100286.20;437893;1248;414168;-39
2023/02/09 15:51:11;;;;;;;44.50;19.50;;;;;;;0.31;62.39;100286.80;440750;1250;112042;-39
2023/02/09 16:01:19;;;;;;;67.40;23.60;;;;;;;0.04;62.72;100289.25;442388;1250;109733;-40
2023/02/09 16:11:31;;;;;;;49.20;22.70;;;;;;;-0.19;62.91;100284.82;442424;1249;107513;-40
2023/02/09 16:21:39;;;;;;;67.80;25.60;;;;;;;-0.37;63.10;100277.23;441983;1250;97904;-39
2023/02/09 16:31:46;;;;;;;73.70;30.50;;;;;;;-0.52;63.27;100277.95;441865;1250;98715;-40
2023/02/09 16:41:53;;;;;;;63.30;26.60;;;;;;;-0.64;63.19;100275.69;442673;1250;111714;-39
2023/02/09 16:52:01;;;;;;;57.50;22.80;;;;;;;-0.76;63.64;100276.10;442341;1247;107048;-41
2023/02/09 17:02:31;;;;;;;61.40;23.90;;;;;;;-0.90;63.95;100282.55;442074;1250;99241;-40
2023/02/09 17:12:39;;;;;;;51.90;22.20;;;;;;;-1.02;64.34;100279.67;441942;1250;110980;-40
2023/02/09 17:22:46;;;;;;;51.30;21.70;;;;;;;-1.11;64.27;100271.73;438121;1250;107552;-38
2023/02/09 17:32:52;;;;;;;54.30;23.60;;;;;;;-1.24;64.63;100252.41;438128;1248;99243;-40
2023/02/09 17:42:58;;;;;;;59.90;26.90;;;;;;;-1.33;64.84;100247.77;438155;1248;110964;-40
2023/02/09 17:53:12;;;;;;;46.50;20.20;;;;;;;-1.41;64.97;100234.83;438159;1250;107854;-39
2023/02/09 18:03:22;;;;;;;54.80;22.20;;;;;;;-1.42;64.69;100225.23;438180;1250;98826;-39
2023/02/09 18:13:27;;;;;;;;;;;;;;;-1.44;64.83;100207.00;438287;1250;106859;-41
2023/02/09 18:23:34;;;;;;;42.70;19.10;;;;;;;-1.44;65.04;100212.21;438095;1248;99228;-39
2023/02/09 18:33:43;;;;;;;43.40;18.10;;;;;;;-1.40;64.74;100201.73;438087;1248;111859;-39
2023/02/09 18:43:51;;;;;;;45.70;20.70;;;;;;;-1.38;64.92;100189.66;438173;1250;107597;-40
2023/02/09 18:54:00;;;;;;;44.80;18.20;;;;;;;-1.37;65.02;100189.09;438261;1248;98846;-40
2023/02/09 19:04:05;;;;;;;39.60;17.00;;;;;;;-1.41;65.00;100200.41;438351;1250;109783;-40
2023/02/09 19:24:37;;;;;;;41.40;17.80;;;;;;;-1.37;64.89;100182.13;438001;1248;112721;-39
2023/02/09 19:34:44;;;;;;;40.50;18.30;;;;;;;-1.40;64.73;100179.95;437906;1248;108806;-38
2023/02/09 19:44:53;;;;;;;33.00;15.30;;;;;;;-1.48;65.15;100171.71;438245;1248;98909;-40
2023/02/09 19:55:01;;;;;;;32.20;12.80;;;;;;;-1.50;65.10;100169.80;438232;1250;107355;-41
2023/02/09 20:05:09;;;;;;;33.70;14.40;;;;;;;-1.52;65.15;100169.06;437939;1248;99199;-40
2023/02/09 20:15:17;;;;;;;36.80;15.50;;;;;;;-1.54;65.05;100162.52;438222;1249;111431;-40
2023/02/09 20:25:24;;;;;;;34.00;16.40;;;;;;;-1.58;65.21;100152.77;438125;1250;107558;-40
2023/02/09 20:35:30;;;;;;;35.20;15.80;;;;;;;-1.56;65.44;100145.16;438970;1250;98029;-39
2023/02/09 21:06:03;;;;;;;45.50;18.40;;;;;;;-1.66;65.57;100136.39;440638;1251;111108;-41
2023/02/09 21:16:14;;;;;;;38.20;17.30;;;;;;;-1.70;65.73;100166.23;439883;1248;107420;-39
2023/02/09 21:36:27;;;;;;;74.70;26.80;;;;;;;-1.80;65.91;100153.33;438719;1251;107827;-39
2023/02/09 21:46:36;;;;;;;42.80;19.00;;;;;;;-1.86;66.17;100173.55;440185;1250;98461;-38
2023/02/09 21:56:45;;;;;;;38.60;15.60;;;;;;;-1.90;66.23;100199.36;441096;1260;111485;-39
2023/02/09 22:06:52;;;;;;;37.30;17.60;;;;;;;-1.90;66.40;100192.48;440387;1251;106524;-41
2023/02/09 22:16:59;;;;;;;39.40;17.90;;;;;;;-1.92;66.51;100206.20;438302;1250;98798;-38
2023/02/09 22:27:10;;;;;;;28.10;14.40;;;;;;;-1.83;66.72;100201.11;439152;1251;109599;-38
2023/02/09 22:37:17;;;;;;;39.30;17.20;;;;;;;-1.75;67.01;100190.88;438055;1248;99240;-40
2023/02/09 22:47:25;;;;;;;39.80;17.90;;;;;;;-1.82;67.13;100193.25;439913;1258;111978;-39
2023/02/09 22:57:32;;;;;;;38.70;17.10;;;;;;;-1.90;67.24;100181.92;439296;1249;106977;-41
2023/02/09 23:07:40;;;;;;;32.60;17.70;;;;;;;-1.97;67.37;100201.64;438221;1248;97972;-39
2023/02/09 23:17:47;;;;;;;40.70;18.70;;;;;;;-2.00;67.54;100187.35;438242;1248;111530;-41
2023/02/09 23:27:55;;;;;;;47.20;19.40;;;;;;;-2.03;67.70;100165.93;438017;1248;108193;-40
2023/02/09 23:38:02;;;;;;;40.80;20.50;;;;;;;-2.04;67.91;100164.13;438209;1248;99094;-40
2023/02/09 23:48:09;;;;;;;36.90;18.10;;;;;;;-2.08;67.96;100160.59;437895;1251;108578;-40
2023/02/09 23:58:17;;;;;;;45.30;19.50;;;;;;;-2.11;68.06;100160.86;437967;1248;99231;-40
